createdAt,value
2017-11-11T00:01:50.910Z,6.30
2017-11-11T00:04:19.152Z,6.30
2017-11-11T00:06:46.633Z,6.30
2017-11-11T00:09:14.106Z,6.30
2017-11-11T00:11:41.573Z,6.30
2017-11-11T00:14:09.790Z,6.40
2017-11-11T00:16:37.357Z,6.40
2017-11-11T00:19:04.821Z,6.40
2017-11-11T00:21:32.298Z,6.20
2017-11-11T00:23:59.757Z,6.30
2017-11-11T00:26:28.018Z,6.10
2017-11-11T00:28:55.474Z,6.10
2017-11-11T00:31:22.947Z,6.10
2017-11-11T00:33:50.414Z,6.10
2017-11-11T00:36:17.875Z,6.10
2017-11-11T00:38:45.469Z,6.20
2017-11-11T00:41:12.937Z,6.10
2017-11-11T00:43:40.408Z,6.10
2017-11-11T00:46:07.866Z,6.10
2017-11-11T00:48:35.330Z,6.10
2017-11-11T00:51:02.817Z,6.10
2017-11-11T00:53:30.288Z,6.10
2017-11-11T00:55:58.651Z,6.10
2017-11-11T00:58:26.123Z,6.10
2017-11-11T01:00:54.356Z,6.20
2017-11-11T01:03:21.834Z,6.10
2017-11-11T01:05:49.310Z,6.20
2017-11-11T01:08:17.546Z,6.20
2017-11-11T01:10:45.002Z,6.20
2017-11-11T01:13:12.473Z,6.20
2017-11-11T01:15:39.926Z,6.20
2017-11-11T01:18:07.390Z,6.20
2017-11-11T01:20:34.849Z,6.20
2017-11-11T01:23:02.359Z,6.10
2017-11-11T01:25:30.122Z,6.20
2017-11-11T01:27:57.586Z,6.10
2017-11-11T01:30:25.057Z,6.10
2017-11-11T01:32:52.663Z,6.20
2017-11-11T01:35:21.542Z,6.20
2017-11-11T01:37:48.985Z,6.20
2017-11-11T01:40:16.473Z,6.20
2017-11-11T01:42:44.695Z,6.20
2017-11-11T01:45:12.160Z,6.20
2017-11-11T01:47:39.706Z,6.20
2017-11-11T01:50:07.172Z,6.30
2017-11-11T01:52:34.621Z,6.40
2017-11-11T01:55:02.092Z,6.40
2017-11-11T01:57:29.554Z,6.40
2017-11-11T01:59:57.022Z,6.40
2017-11-11T02:02:24.498Z,6.40
2017-11-11T02:04:52.723Z,6.40
2017-11-11T02:07:20.201Z,6.40
2017-11-11T02:09:47.669Z,6.40
2017-11-11T02:12:15.278Z,6.40
2017-11-11T02:14:42.741Z,6.40
2017-11-11T02:17:10.218Z,6.40
2017-11-11T02:19:37.690Z,6.40
2017-11-11T02:22:05.156Z,6.30
2017-11-11T02:24:32.625Z,6.30
2017-11-11T02:27:01.590Z,6.40
2017-11-11T02:29:29.080Z,6.30
2017-11-11T02:31:57.331Z,6.40
2017-11-11T02:34:24.790Z,6.40
2017-11-11T02:36:52.449Z,6.40
2017-11-11T02:39:20.043Z,6.30
2017-11-11T02:41:47.506Z,6.30
2017-11-11T02:44:14.967Z,6.30
2017-11-11T02:46:42.612Z,6.30
2017-11-11T02:49:10.838Z,6.30
2017-11-11T02:51:38.792Z,6.30
2017-11-11T02:54:06.285Z,6.30
2017-11-11T02:56:33.867Z,6.30
2017-11-11T02:59:02.128Z,6.30
2017-11-11T03:01:29.587Z,6.30
2017-11-11T03:03:57.051Z,6.40
2017-11-11T03:06:25.291Z,6.40
2017-11-11T03:08:52.837Z,6.40
2017-11-11T03:11:20.307Z,6.40
2017-11-11T03:13:47.786Z,6.40
2017-11-11T03:16:15.248Z,6.40
2017-11-11T03:18:43.489Z,6.40
2017-11-11T03:21:10.964Z,6.40
2017-11-11T03:23:39.954Z,6.40
2017-11-11T03:26:07.436Z,6.40
2017-11-11T03:28:34.890Z,6.40
2017-11-11T03:31:03.115Z,6.40
2017-11-11T03:33:30.603Z,6.40
2017-11-11T03:35:58.080Z,6.50
2017-11-11T03:38:26.341Z,6.50
2017-11-11T03:40:53.809Z,6.40
2017-11-11T03:43:22.055Z,6.50
2017-11-11T03:45:49.513Z,6.50
2017-11-11T03:48:16.974Z,6.50
2017-11-11T03:50:45.220Z,6.50
2017-11-11T03:53:12.775Z,6.50
2017-11-11T03:55:40.297Z,6.60
2017-11-11T03:58:08.635Z,6.70
2017-11-11T04:00:36.930Z,6.70
2017-11-11T04:03:04.394Z,6.70
2017-11-11T04:05:31.866Z,6.70
2017-11-11T04:08:00.098Z,6.90
2017-11-11T04:10:27.617Z,6.90
2017-11-11T04:12:55.828Z,7.00
2017-11-11T04:15:23.329Z,7.00
2017-11-11T04:17:51.586Z,7.00
2017-11-11T04:20:19.549Z,7.00
2017-11-11T04:22:47.039Z,6.90
2017-11-11T04:25:15.268Z,7.00
2017-11-11T04:27:42.772Z,7.00
2017-11-11T04:30:10.255Z,7.00
2017-11-11T04:32:37.846Z,7.00
2017-11-11T04:35:05.320Z,6.90
2017-11-11T04:37:32.779Z,7.00
2017-11-11T04:40:00.252Z,7.00
2017-11-11T04:42:28.469Z,7.00
2017-11-11T04:44:55.993Z,7.00
2017-11-11T04:47:23.418Z,7.00
2017-11-11T04:49:50.880Z,7.00
2017-11-11T04:52:18.359Z,7.00
2017-11-11T04:54:46.702Z,6.90
2017-11-11T04:57:14.174Z,6.90
2017-11-11T04:59:41.629Z,6.90
2017-11-11T05:02:09.099Z,6.90
2017-11-11T05:04:37.491Z,6.90
2017-11-11T05:07:04.989Z,6.90
2017-11-11T05:09:32.454Z,6.90
2017-11-11T05:11:59.918Z,6.90
2017-11-11T05:14:27.390Z,6.90
2017-11-11T05:16:54.883Z,6.90
2017-11-11T05:19:22.411Z,6.90
2017-11-11T05:21:49.882Z,6.90
2017-11-11T05:24:18.114Z,7.00
2017-11-11T05:26:45.595Z,7.00
2017-11-11T05:29:13.076Z,7.00
2017-11-11T05:31:41.320Z,6.90
2017-11-11T05:34:08.790Z,6.90
2017-11-11T05:36:36.269Z,6.90
2017-11-11T05:39:03.753Z,6.90
2017-11-11T05:41:31.412Z,6.80
2017-11-11T05:43:58.866Z,6.80
2017-11-11T05:46:26.316Z,6.70
2017-11-11T05:48:53.801Z,6.70
2017-11-11T05:51:21.263Z,6.60
2017-11-11T05:53:48.735Z,6.60
2017-11-11T05:56:16.208Z,6.60
2017-11-11T05:58:44.456Z,6.60
2017-11-11T06:01:12.019Z,6.60
2017-11-11T06:03:39.493Z,6.60
2017-11-11T06:06:06.961Z,6.60
2017-11-11T06:08:35.227Z,6.70
2017-11-11T06:11:02.685Z,6.60
2017-11-11T06:13:30.142Z,6.60
2017-11-11T06:15:58.369Z,6.70
2017-11-11T06:18:25.843Z,6.60
2017-11-11T06:20:53.303Z,6.70
2017-11-11T06:23:20.783Z,6.70
2017-11-11T06:25:49.054Z,6.60
2017-11-11T06:28:16.493Z,6.60
2017-11-11T06:30:43.973Z,6.60
2017-11-11T06:33:11.437Z,6.60
2017-11-11T06:35:39.731Z,6.70
2017-11-11T06:38:08.055Z,6.70
2017-11-11T06:40:35.557Z,6.70
2017-11-11T06:43:03.822Z,6.80
2017-11-11T06:45:32.053Z,6.80
2017-11-11T06:47:59.518Z,6.80
2017-11-11T06:50:27.107Z,6.80
2017-11-11T06:52:55.357Z,6.80
2017-11-11T06:55:22.831Z,6.80
2017-11-11T06:57:50.318Z,6.90
2017-11-11T07:00:18.538Z,6.90
2017-11-11T07:02:46.009Z,6.90
2017-11-11T07:05:13.495Z,6.90
2017-11-11T07:07:41.748Z,6.90
2017-11-11T07:10:09.221Z,6.90
2017-11-11T07:12:37.454Z,6.90
2017-11-11T07:15:05.903Z,6.90
2017-11-11T07:17:33.602Z,7.00
2017-11-11T07:20:01.061Z,7.00
2017-11-11T07:22:28.596Z,7.00
2017-11-11T07:24:56.082Z,7.10
2017-11-11T07:27:23.550Z,7.00
2017-11-11T07:29:51.047Z,7.10
2017-11-11T07:32:18.519Z,7.10
2017-11-11T07:34:45.986Z,7.10
2017-11-11T07:37:13.544Z,7.10
2017-11-11T07:39:41.129Z,7.20
2017-11-11T07:42:09.409Z,7.20
2017-11-11T07:44:36.923Z,7.20
2017-11-11T07:47:04.524Z,7.30
2017-11-11T07:49:31.975Z,7.30
2017-11-11T07:51:59.446Z,7.30
2017-11-11T07:54:27.012Z,7.30
2017-11-11T07:56:54.507Z,7.30
2017-11-11T07:59:22.113Z,7.30
2017-11-11T08:01:50.405Z,7.40
2017-11-11T08:04:18.693Z,7.40
2017-11-11T08:06:46.231Z,7.40
2017-11-11T08:09:13.731Z,7.40
2017-11-11T08:11:41.969Z,7.50
2017-11-11T08:14:09.427Z,7.50
2017-11-11T08:16:36.898Z,7.50
2017-11-11T08:19:05.119Z,7.40
2017-11-11T08:21:32.605Z,7.40
2017-11-11T08:24:00.070Z,7.30
2017-11-11T08:26:27.579Z,7.40
2017-11-11T08:28:55.043Z,7.40
2017-11-11T08:31:22.509Z,7.40
2017-11-11T08:33:49.980Z,7.40
2017-11-11T08:36:17.483Z,7.40
2017-11-11T08:38:45.810Z,7.30
2017-11-11T08:41:14.022Z,7.30
2017-11-11T08:43:41.502Z,7.30
2017-11-11T08:46:09.737Z,7.40
2017-11-11T08:48:37.235Z,7.40
2017-11-11T08:51:04.698Z,7.40
2017-11-11T08:53:32.221Z,7.40
2017-11-11T08:55:59.797Z,7.40
2017-11-11T08:58:28.162Z,7.40
2017-11-11T09:00:55.627Z,7.40
2017-11-11T09:03:23.838Z,7.50
2017-11-11T09:05:51.342Z,7.50
2017-11-11T09:08:18.812Z,7.40
2017-11-11T09:10:47.361Z,7.40
2017-11-11T09:13:15.079Z,7.40
2017-11-11T09:15:43.401Z,7.50
2017-11-11T09:18:10.859Z,7.50
2017-11-11T09:20:38.336Z,7.50
2017-11-11T09:23:05.933Z,7.50
2017-11-11T09:25:33.457Z,7.50
2017-11-11T09:28:01.886Z,7.40
2017-11-11T09:30:29.351Z,7.40
2017-11-11T09:32:56.987Z,7.50
2017-11-11T09:35:24.472Z,7.50
2017-11-11T09:37:51.992Z,7.50
2017-11-11T09:40:20.299Z,7.50
2017-11-11T09:42:47.841Z,7.40
2017-11-11T09:45:15.422Z,7.40
2017-11-11T09:47:42.885Z,7.40
2017-11-11T09:50:10.378Z,7.40
2017-11-11T09:52:37.835Z,7.30
2017-11-11T09:55:05.329Z,7.30
2017-11-11T09:57:33.030Z,7.30
2017-11-11T10:00:01.402Z,7.30
2017-11-11T10:02:28.875Z,7.20
2017-11-11T10:04:56.413Z,7.30
2017-11-11T10:07:23.906Z,7.30
2017-11-11T10:09:51.482Z,7.30
2017-11-11T10:12:19.722Z,7.30
2017-11-11T10:14:47.318Z,7.30
2017-11-11T10:17:15.651Z,7.30
2017-11-11T10:19:43.118Z,7.30
2017-11-11T10:22:10.625Z,7.30
2017-11-11T10:24:38.193Z,7.20
2017-11-11T10:27:05.801Z,7.20
2017-11-11T10:29:33.525Z,7.20
2017-11-11T10:32:01.042Z,7.30
2017-11-11T10:34:29.394Z,7.40
2017-11-11T10:36:56.855Z,7.40
2017-11-11T10:39:24.379Z,7.50
2017-11-11T10:41:51.940Z,7.50
2017-11-11T10:44:19.426Z,7.40
2017-11-11T10:46:47.163Z,7.40
2017-11-11T10:49:14.718Z,7.50
2017-11-11T10:51:42.232Z,7.50
2017-11-11T10:54:10.943Z,7.50
2017-11-11T10:56:38.446Z,7.50
2017-11-11T10:59:05.938Z,7.50
2017-11-11T11:01:34.923Z,7.50
2017-11-11T11:04:03.202Z,7.50
2017-11-11T11:06:30.746Z,7.50
2017-11-11T11:08:58.210Z,7.50
2017-11-11T11:11:25.909Z,7.60
2017-11-11T11:13:53.625Z,7.60
2017-11-11T11:16:21.291Z,7.60
2017-11-11T11:18:48.775Z,7.60
2017-11-11T11:21:16.230Z,7.50
2017-11-11T11:23:43.785Z,7.30
2017-11-11T11:26:11.288Z,7.20
2017-11-11T11:28:38.922Z,7.10
2017-11-11T11:31:06.396Z,7.20
2017-11-11T11:33:34.089Z,7.20
2017-11-11T11:36:03.194Z,7.10
2017-11-11T11:38:30.913Z,7.10
2017-11-11T11:40:58.401Z,7.10
2017-11-11T11:43:25.841Z,7.10
2017-11-11T11:45:53.372Z,7.20
2017-11-11T11:48:20.850Z,7.30
2017-11-11T11:50:48.385Z,7.30
2017-11-11T11:53:15.869Z,7.30
2017-11-11T11:55:43.391Z,7.50
2017-11-11T11:58:10.858Z,7.40
2017-11-11T12:00:38.470Z,7.50
2017-11-11T12:03:05.942Z,7.50
2017-11-11T12:05:34.306Z,7.60
2017-11-11T12:08:03.311Z,7.60
2017-11-11T12:10:31.711Z,7.70
2017-11-11T12:12:59.218Z,7.70
2017-11-11T12:15:26.706Z,7.80
2017-11-11T12:17:54.236Z,7.80
2017-11-11T12:20:21.710Z,7.70
2017-11-11T12:22:49.996Z,7.90
2017-11-11T12:25:18.265Z,7.90
2017-11-11T12:27:46.879Z,7.90
2017-11-11T12:30:15.422Z,8.00
2017-11-11T12:32:43.770Z,8.10
2017-11-11T12:35:11.275Z,8.10
2017-11-11T12:37:38.750Z,8.00
2017-11-11T12:40:06.998Z,8.00
2017-11-11T12:42:34.491Z,8.00
2017-11-11T12:45:01.981Z,8.00
2017-11-11T12:47:29.636Z,8.10
2017-11-11T12:49:57.130Z,8.10
2017-11-11T12:52:24.624Z,8.00
2017-11-11T12:54:52.129Z,8.00
2017-11-11T12:57:19.667Z,8.20
2017-11-11T12:59:47.147Z,8.20
2017-11-11T13:02:14.689Z,8.30
2017-11-11T13:04:42.262Z,8.20
2017-11-11T13:07:09.761Z,8.30
2017-11-11T13:09:38.002Z,8.40
2017-11-11T13:12:05.576Z,8.40
2017-11-11T13:14:33.058Z,8.30
2017-11-11T13:17:02.036Z,8.30
2017-11-11T13:19:30.277Z,8.40
2017-11-11T13:21:57.903Z,8.40
2017-11-11T13:24:25.362Z,8.50
2017-11-11T13:26:52.914Z,8.50
2017-11-11T13:29:20.471Z,8.50
2017-11-11T13:31:48.049Z,8.50
2017-11-11T13:34:15.628Z,8.60
2017-11-11T13:36:43.206Z,8.60
2017-11-11T13:39:10.690Z,8.70
2017-11-11T13:41:38.931Z,8.70
2017-11-11T13:44:06.406Z,8.70
2017-11-11T13:46:35.438Z,8.80
2017-11-11T13:49:02.976Z,8.80
2017-11-11T13:51:30.524Z,8.90
2017-11-11T13:53:58.828Z,8.80
2017-11-11T13:56:26.329Z,8.80
2017-11-11T13:58:53.957Z,8.80
2017-11-11T14:01:21.471Z,8.80
2017-11-11T14:03:49.748Z,8.90
2017-11-11T14:06:17.972Z,8.90
2017-11-11T14:08:45.474Z,8.90
2017-11-11T14:11:14.169Z,9.00
2017-11-11T14:13:42.383Z,8.90
2017-11-11T14:16:09.946Z,8.90
2017-11-11T14:18:37.608Z,8.90
2017-11-11T14:21:05.780Z,8.90
2017-11-11T14:23:33.238Z,8.90
2017-11-11T14:26:01.941Z,8.90
2017-11-11T14:28:29.422Z,8.90
2017-11-11T14:30:57.670Z,8.90
2017-11-11T14:33:25.142Z,8.90
2017-11-11T14:35:52.797Z,8.80
2017-11-11T14:38:24.558Z,8.90
2017-11-11T14:40:53.070Z,8.80
2017-11-11T14:43:21.007Z,8.80
2017-11-11T14:45:48.735Z,8.80
2017-11-11T14:48:16.229Z,8.90
2017-11-11T14:50:43.775Z,8.90
2017-11-11T14:53:11.579Z,8.90
2017-11-11T14:55:39.897Z,8.90
2017-11-11T14:58:07.390Z,8.90
2017-11-11T15:00:34.876Z,9.00
2017-11-11T15:03:02.380Z,8.90
2017-11-11T15:05:29.899Z,8.80
2017-11-11T15:07:58.143Z,8.70
2017-11-11T15:10:25.801Z,8.70
2017-11-11T15:12:53.308Z,8.70
2017-11-11T15:15:20.828Z,8.60
2017-11-11T15:17:49.052Z,8.70
2017-11-11T15:20:16.537Z,8.70
2017-11-11T15:22:44.006Z,8.70
2017-11-11T15:25:11.470Z,8.70
2017-11-11T15:27:38.952Z,8.70
2017-11-11T15:30:06.437Z,8.70
2017-11-11T15:32:34.043Z,8.70
2017-11-11T15:35:01.519Z,8.80
2017-11-11T15:37:29.780Z,8.80
2017-11-11T15:39:57.242Z,8.80
2017-11-11T15:42:25.489Z,8.70
2017-11-11T15:44:52.968Z,8.70
2017-11-11T15:47:20.452Z,8.70
2017-11-11T15:49:47.934Z,8.70
2017-11-11T15:52:15.416Z,8.70
2017-11-11T15:54:42.891Z,8.70
2017-11-11T15:57:10.357Z,8.80
2017-11-11T15:59:38.608Z,8.70
2017-11-11T16:02:06.089Z,8.70
2017-11-11T16:04:34.326Z,8.70
2017-11-11T16:07:01.798Z,8.70
2017-11-11T16:09:29.276Z,8.70
2017-11-11T16:11:56.839Z,8.70
2017-11-11T16:14:24.402Z,8.70
2017-11-11T16:16:52.727Z,8.60
2017-11-11T16:19:20.204Z,8.60
2017-11-11T16:21:47.994Z,8.60
2017-11-11T16:24:16.239Z,8.70
2017-11-11T16:26:43.810Z,8.60
2017-11-11T16:29:11.283Z,8.70
2017-11-11T16:31:39.571Z,8.70
2017-11-11T16:34:07.825Z,8.60
2017-11-11T16:36:35.299Z,8.60
2017-11-11T16:39:03.614Z,8.60
2017-11-11T16:41:31.118Z,8.70
2017-11-11T16:43:58.970Z,8.60
2017-11-11T16:46:26.565Z,8.60
2017-11-11T16:48:54.796Z,8.60
2017-11-11T16:51:22.280Z,8.60
2017-11-11T16:53:50.541Z,8.50
2017-11-11T16:56:18.026Z,8.50
2017-11-11T16:58:46.263Z,8.50
2017-11-11T17:01:13.749Z,8.50
2017-11-11T17:03:41.976Z,8.50
2017-11-11T17:06:09.468Z,8.50
2017-11-11T17:08:38.470Z,8.50
2017-11-11T17:11:06.745Z,8.50
2017-11-11T17:13:34.209Z,8.50
2017-11-11T17:16:02.457Z,8.50
2017-11-11T17:18:29.930Z,8.50
2017-11-11T17:20:57.637Z,8.50
2017-11-11T17:23:26.598Z,8.50
2017-11-11T17:25:54.843Z,8.50
2017-11-11T17:28:22.408Z,8.50
2017-11-11T17:30:49.870Z,8.40
2017-11-11T17:33:17.351Z,8.40
2017-11-11T17:35:45.606Z,8.50
2017-11-11T17:38:13.841Z,8.50
2017-11-11T17:43:32.042Z,8.40
2017-11-11T17:45:59.544Z,8.30
2017-11-11T17:48:27.255Z,8.30
2017-11-11T17:50:54.740Z,8.30
2017-11-11T17:53:23.011Z,8.30
2017-11-11T17:55:50.470Z,8.30
2017-11-11T17:58:18.791Z,8.30
2017-11-11T18:00:46.285Z,8.30
2017-11-11T18:03:13.770Z,8.20
2017-11-11T18:05:41.249Z,8.20
2017-11-11T18:08:08.883Z,8.20
2017-11-11T18:10:36.394Z,8.20
2017-11-11T18:13:03.916Z,8.30
2017-11-11T18:15:31.388Z,8.30
2017-11-11T18:17:58.892Z,8.30
2017-11-11T18:20:26.465Z,8.30
2017-11-11T18:22:54.732Z,8.30
2017-11-11T18:25:23.178Z,8.30
2017-11-11T18:27:50.670Z,8.30
2017-11-11T18:30:18.976Z,8.30
2017-11-11T18:32:46.431Z,8.30
2017-11-11T18:35:13.966Z,8.40
2017-11-11T18:37:42.214Z,8.20
2017-11-11T18:40:09.701Z,8.20
2017-11-11T18:42:37.947Z,8.30
2017-11-11T18:45:06.316Z,8.30
2017-11-11T18:47:33.835Z,8.20
2017-11-11T18:50:01.363Z,8.20
2017-11-11T18:52:29.824Z,8.20
2017-11-11T18:54:57.299Z,8.10
2017-11-11T18:57:24.770Z,8.20
2017-11-11T18:59:53.054Z,8.10
2017-11-11T19:02:20.544Z,8.10
2017-11-11T19:04:48.031Z,8.10
2017-11-11T19:07:15.535Z,8.10
2017-11-11T19:09:43.008Z,8.00
2017-11-11T19:12:10.484Z,8.10
2017-11-11T19:14:37.999Z,8.10
2017-11-11T19:17:05.479Z,8.00
2017-11-11T19:19:32.960Z,8.10
2017-11-11T19:22:00.451Z,8.10
2017-11-11T19:24:28.891Z,7.90
2017-11-11T19:26:56.470Z,7.90
2017-11-11T19:29:24.007Z,8.00
2017-11-11T19:31:51.493Z,8.00
2017-11-11T19:34:18.965Z,8.00
2017-11-11T19:36:47.212Z,8.00
2017-11-11T19:39:14.715Z,8.00
2017-11-11T19:41:42.219Z,8.00
2017-11-11T19:44:09.723Z,8.00
2017-11-11T19:46:37.973Z,7.90
2017-11-11T19:49:05.909Z,7.90
2017-11-11T19:51:33.375Z,8.00
2017-11-11T19:54:00.873Z,7.80
2017-11-11T19:56:29.239Z,7.90
2017-11-11T19:58:56.818Z,7.90
2017-11-11T20:01:24.323Z,7.80
2017-11-11T20:03:51.812Z,7.80
2017-11-11T20:06:19.474Z,7.90
2017-11-11T20:08:47.780Z,7.80
2017-11-11T20:11:16.032Z,7.80
2017-11-11T20:13:43.998Z,7.80
2017-11-11T20:16:12.266Z,7.80
2017-11-11T20:18:40.543Z,7.80
2017-11-11T20:21:08.038Z,7.70
2017-11-11T20:23:35.529Z,7.80
2017-11-11T20:26:03.155Z,7.80
2017-11-11T20:28:30.685Z,7.80
2017-11-11T20:30:58.153Z,7.80
2017-11-11T20:33:25.652Z,7.80
2017-11-11T20:35:53.160Z,7.80
2017-11-11T20:38:21.406Z,7.80
2017-11-11T20:40:48.892Z,7.80
2017-11-11T20:43:17.139Z,7.80
2017-11-11T20:45:44.626Z,7.80
2017-11-11T20:48:12.978Z,7.80
2017-11-11T20:50:40.579Z,7.80
2017-11-11T20:53:09.022Z,7.80
2017-11-11T20:55:36.482Z,7.80
2017-11-11T20:58:04.750Z,7.90
2017-11-11T21:00:32.320Z,7.90
2017-11-11T21:02:59.800Z,7.90
2017-11-11T21:05:28.238Z,7.80
2017-11-11T21:07:55.729Z,7.80
2017-11-11T21:10:23.979Z,7.80
2017-11-11T21:12:51.531Z,7.80
2017-11-11T21:15:19.015Z,7.70
2017-11-11T21:17:46.517Z,7.80
2017-11-11T21:20:14.220Z,7.70
2017-11-11T21:22:41.700Z,7.80
2017-11-11T21:25:09.950Z,7.70
2017-11-11T21:27:37.655Z,7.70
2017-11-11T21:30:05.147Z,7.80
2017-11-11T21:32:32.619Z,7.70
2017-11-11T21:35:00.090Z,7.70
2017-11-11T21:37:27.631Z,7.70
2017-11-11T21:39:55.094Z,7.70
2017-11-11T21:42:22.589Z,7.60
2017-11-11T21:44:50.831Z,7.40
2017-11-11T21:47:19.134Z,7.40
2017-11-11T21:49:47.380Z,7.40
2017-11-11T21:52:14.864Z,7.40
2017-11-11T21:54:43.115Z,7.40
2017-11-11T21:57:10.578Z,7.40
2017-11-11T21:59:39.614Z,7.40
2017-11-11T22:02:07.097Z,7.40
2017-11-11T22:04:34.639Z,7.40
2017-11-11T22:07:02.118Z,7.30
2017-11-11T22:09:29.586Z,7.40
2017-11-11T22:11:57.570Z,7.30
2017-11-11T22:14:25.032Z,7.30
2017-11-11T22:16:52.515Z,7.20
2017-11-11T22:19:19.997Z,7.20
2017-11-11T22:21:47.483Z,7.20
2017-11-11T22:24:14.947Z,7.20
2017-11-11T22:26:43.333Z,7.20
2017-11-11T22:29:10.792Z,7.20
2017-11-11T22:31:38.286Z,7.20
2017-11-11T22:34:05.767Z,7.20
2017-11-11T22:36:33.238Z,7.20
2017-11-11T22:39:00.730Z,7.10
2017-11-11T22:41:28.967Z,6.90
2017-11-11T22:43:56.973Z,6.90
2017-11-11T22:46:25.213Z,6.80
2017-11-11T22:48:52.714Z,6.80
2017-11-11T22:51:20.947Z,6.80
2017-11-11T22:53:48.420Z,6.70
2017-11-11T22:56:15.911Z,6.60
2017-11-11T22:58:44.186Z,6.50
2017-11-11T23:01:12.431Z,6.50
2017-11-11T23:03:39.912Z,6.50
2017-11-11T23:06:08.173Z,6.50
2017-11-11T23:08:35.660Z,6.40
2017-11-11T23:11:03.149Z,6.40
2017-11-11T23:13:30.818Z,6.30
2017-11-11T23:15:58.278Z,6.30
2017-11-11T23:18:25.753Z,6.30
2017-11-11T23:20:53.224Z,6.20
2017-11-11T23:23:20.678Z,6.20
2017-11-11T23:25:48.146Z,6.20
2017-11-11T23:28:16.404Z,6.20
2017-11-11T23:30:43.871Z,6.20
2017-11-11T23:33:11.365Z,6.10
2017-11-11T23:35:38.853Z,6.10
2017-11-11T23:38:06.328Z,6.10
2017-11-11T23:40:34.586Z,6.20
2017-11-11T23:43:02.072Z,6.20
2017-11-11T23:45:30.323Z,6.30
2017-11-11T23:47:57.806Z,6.30
2017-11-11T23:50:25.442Z,6.30
2017-11-11T23:52:52.917Z,6.30
2017-11-11T23:55:21.190Z,6.30
2017-11-11T23:57:48.906Z,6.30
